createdAt,value
2023-03-25T00:03:14.622Z,8.70
2023-03-25T00:08:16.904Z,8.60
2023-03-25T00:13:18.718Z,8.60
2023-03-25T00:18:22.676Z,8.50
2023-03-25T00:23:24.472Z,8.50
2023-03-25T00:28:28.615Z,8.40
2023-03-25T00:33:31.784Z,8.40
2023-03-25T00:38:35.649Z,8.30
2023-03-25T00:43:37.545Z,8.20
2023-03-25T00:48:39.352Z,8.20
2023-03-25T00:53:41.607Z,8.20
2023-03-25T00:58:44.755Z,8.10
2023-03-25T01:03:46.746Z,8.10
2023-03-25T01:08:49.201Z,8.00
2023-03-25T01:13:51.685Z,8.10
2023-03-25T01:18:54.892Z,8.10
2023-03-25T01:23:56.798Z,8.10
2023-03-25T01:28:58.756Z,8.00
2023-03-25T01:34:00.589Z,7.90
2023-03-25T01:39:05.601Z,7.90
2023-03-25T01:44:29.092Z,7.90
2023-03-25T01:49:44.115Z,7.90
2023-03-25T01:54:47.726Z,7.90
2023-03-25T01:59:51.735Z,7.90
2023-03-25T02:05:03.789Z,7.90
2023-03-25T02:10:08.454Z,7.80
2023-03-25T02:15:11.681Z,7.90
2023-03-25T02:20:25.420Z,7.90
2023-03-25T02:25:48.472Z,7.90
2023-03-25T02:31:09.470Z,8.00
2023-03-25T02:36:38.818Z,7.90
2023-03-25T02:41:40.949Z,7.90
2023-03-25T02:46:50.108Z,7.90
2023-03-25T02:52:13.995Z,7.90
2023-03-25T02:57:20.113Z,8.00
2023-03-25T03:02:25.673Z,8.00
2023-03-25T03:07:36.393Z,8.00
2023-03-25T03:13:05.092Z,8.00
2023-03-25T03:18:34.126Z,7.90
2023-03-25T03:24:10.602Z,7.90
2023-03-25T03:29:12.321Z,7.90
2023-03-25T03:34:21.396Z,7.90
2023-03-25T03:39:31.568Z,7.90
2023-03-25T03:44:37.240Z,7.80
2023-03-25T03:49:44.439Z,7.90
2023-03-25T03:55:04.606Z,7.90
2023-03-25T04:00:09.961Z,7.80
2023-03-25T04:05:17.999Z,7.80
2023-03-25T04:10:39.423Z,7.70
2023-03-25T04:15:42.305Z,7.80
2023-03-25T04:20:44.677Z,7.80
2023-03-25T04:25:55.409Z,7.70
2023-03-25T04:31:00.396Z,7.80
2023-03-25T04:36:03.636Z,7.70
2023-03-25T04:41:06.877Z,7.70
2023-03-25T04:46:13.578Z,7.60
2023-03-25T04:51:15.967Z,7.60
2023-03-25T04:56:19.548Z,7.60
2023-03-25T05:01:31.887Z,7.60
2023-03-25T05:06:35.204Z,7.60
2023-03-25T05:11:39.665Z,7.60
2023-03-25T05:16:42.267Z,7.60
2023-03-25T05:21:44.531Z,7.60
2023-03-25T05:26:46.284Z,7.70
2023-03-25T05:31:48.886Z,7.60
2023-03-25T05:36:50.740Z,7.60
2023-03-25T05:41:55.597Z,7.60
2023-03-25T05:47:01.142Z,7.70
2023-03-25T05:52:03.010Z,7.80
2023-03-25T05:57:05.431Z,7.80
2023-03-25T06:02:12.205Z,7.80
2023-03-25T06:07:19.732Z,7.80
2023-03-25T06:12:23.471Z,7.80
2023-03-25T06:17:25.513Z,7.80
2023-03-25T06:22:27.336Z,7.80
2023-03-25T06:27:29.075Z,7.90
2023-03-25T06:32:30.897Z,7.90
2023-03-25T06:37:33.742Z,8.00
2023-03-25T06:42:39.918Z,8.00
2023-03-25T06:48:05.484Z,8.00
2023-03-25T06:53:07.379Z,8.00
2023-03-25T06:58:09.155Z,8.00
2023-03-25T07:03:11.475Z,7.90
2023-03-25T07:08:13.257Z,7.80
2023-03-25T07:13:15.299Z,7.90
2023-03-25T07:18:17.018Z,7.80
2023-03-25T07:23:18.961Z,7.90
2023-03-25T07:28:20.834Z,8.00
2023-03-25T07:33:22.690Z,8.20
2023-03-25T07:38:24.462Z,8.20
2023-03-25T07:43:26.384Z,8.10
2023-03-25T07:48:30.786Z,8.10
2023-03-25T07:53:32.637Z,8.20
2023-03-25T07:58:34.422Z,8.20
2023-03-25T08:03:38.759Z,8.10
2023-03-25T08:08:40.864Z,8.20
2023-03-25T08:13:42.657Z,8.40
2023-03-25T08:18:45.127Z,8.40
2023-03-25T08:23:47.744Z,8.60
2023-03-25T08:28:49.567Z,8.70
2023-03-25T08:33:51.386Z,8.70
2023-03-25T08:38:53.428Z,8.80
2023-03-25T08:43:55.333Z,8.80
2023-03-25T08:48:57.109Z,8.60
2023-03-25T08:53:58.870Z,8.50
2023-03-25T08:59:00.635Z,8.50
2023-03-25T09:04:02.420Z,8.60
2023-03-25T09:09:05.423Z,8.60
2023-03-25T09:14:07.278Z,8.60
2023-03-25T09:19:09.891Z,8.70
2023-03-25T09:24:12.687Z,8.70
2023-03-25T09:29:14.613Z,8.70
2023-03-25T09:34:16.412Z,8.90
2023-03-25T09:39:18.242Z,9.10
2023-03-25T09:44:45.018Z,9.20
2023-03-25T09:49:53.534Z,9.60
2023-03-25T09:55:08.472Z,9.90
2023-03-25T10:00:22.576Z,9.90
2023-03-25T10:05:37.341Z,9.80
2023-03-25T10:10:59.481Z,9.60
2023-03-25T10:16:16.302Z,9.40
2023-03-25T10:21:27.493Z,9.20
2023-03-25T10:26:49.350Z,9.20
2023-03-25T10:32:06.346Z,9.50
2023-03-25T10:37:12.639Z,9.70
2023-03-25T10:42:22.250Z,9.80
2023-03-25T10:47:33.257Z,9.90
2023-03-25T10:52:35.052Z,10.30
2023-03-25T10:57:37.185Z,10.30
2023-03-25T11:02:39.015Z,10.40
2023-03-25T11:07:48.292Z,10.50
2023-03-25T11:12:54.356Z,10.50
2023-03-25T11:18:04.583Z,10.50
2023-03-25T11:23:25.365Z,10.90
2023-03-25T11:28:41.583Z,11.20
2023-03-25T11:33:46.675Z,11.10
2023-03-25T11:38:56.607Z,10.80
2023-03-25T11:43:58.777Z,10.60
2023-03-25T11:49:12.131Z,10.90
2023-03-25T11:54:17.809Z,11.50
2023-03-25T11:59:23.181Z,11.60
2023-03-25T12:04:25.161Z,11.90
2023-03-25T12:09:30.561Z,11.80
2023-03-25T12:15:14.261Z,11.70
2023-03-25T12:20:28.238Z,11.70
2023-03-25T12:25:48.485Z,11.40
2023-03-25T12:31:08.854Z,11.00
2023-03-25T12:36:49.279Z,10.50
2023-03-25T12:42:02.214Z,10.00
2023-03-25T12:47:22.402Z,9.30
2023-03-25T12:52:50.127Z,8.80
2023-03-25T12:57:51.869Z,8.80
2023-03-25T13:03:28.095Z,9.50
2023-03-25T13:08:36.177Z,9.80
2023-03-25T13:13:39.609Z,10.30
2023-03-25T13:18:53.372Z,10.60
2023-03-25T13:24:07.200Z,10.50
2023-03-25T13:29:24.267Z,10.20
2023-03-25T13:34:40.174Z,10.30
2023-03-25T13:39:57.880Z,10.30
2023-03-25T13:45:02.439Z,10.30
2023-03-25T13:50:14.593Z,10.20
2023-03-25T13:55:21.816Z,10.10
2023-03-25T14:00:38.882Z,10.00
2023-03-25T14:06:05.306Z,9.80
2023-03-25T14:11:21.902Z,9.20
2023-03-25T14:16:28.071Z,8.60
2023-03-25T14:21:39.470Z,8.50
2023-03-25T14:26:54.253Z,8.60
2023-03-25T14:32:18.705Z,8.70
2023-03-25T14:37:27.479Z,8.80
2023-03-25T14:42:59.567Z,8.90
2023-03-25T14:48:01.614Z,9.00
2023-03-25T14:53:10.820Z,9.10
2023-03-25T14:58:23.705Z,9.30
2023-03-25T15:03:34.827Z,9.50
2023-03-25T15:08:41.934Z,9.60
2023-03-25T15:13:53.257Z,9.80
2023-03-25T15:18:55.407Z,9.80
2023-03-25T15:24:16.064Z,9.80
2023-03-25T15:29:33.738Z,9.90
2023-03-25T15:35:12.893Z,9.90
2023-03-25T15:40:26.973Z,9.70
2023-03-25T15:45:28.813Z,9.50
2023-03-25T15:50:38.080Z,9.30
2023-03-25T15:55:45.385Z,9.20
2023-03-25T16:00:52.252Z,9.20
2023-03-25T16:05:58.306Z,9.10
2023-03-25T16:11:16.809Z,8.90
2023-03-25T16:16:19.266Z,8.40
2023-03-25T16:21:21.460Z,7.80
2023-03-25T16:26:44.306Z,7.70
2023-03-25T16:31:58.578Z,7.80
2023-03-25T16:37:01.378Z,7.90
2023-03-25T16:42:17.057Z,8.00
2023-03-25T16:47:20.437Z,8.00
2023-03-25T16:52:28.657Z,8.10
2023-03-25T16:57:35.941Z,8.00
2023-03-25T17:02:41.786Z,7.70
2023-03-25T17:07:43.894Z,7.70
2023-03-25T17:12:50.169Z,7.70
2023-03-25T17:17:59.988Z,7.60
2023-03-25T17:23:19.115Z,7.60
2023-03-25T17:28:32.963Z,7.60
2023-03-25T17:33:39.140Z,7.50
2023-03-25T17:38:50.136Z,7.40
2023-03-25T17:43:56.882Z,7.30
2023-03-25T17:48:59.479Z,7.20
2023-03-25T17:54:01.394Z,7.10
2023-03-25T17:59:16.724Z,7.10
2023-03-25T18:04:21.057Z,6.90
2023-03-25T18:09:24.364Z,6.70
2023-03-25T18:14:26.664Z,6.70
2023-03-25T18:19:31.217Z,6.50
2023-03-25T18:24:34.085Z,6.30
2023-03-25T18:29:37.338Z,6.20
2023-03-25T18:34:39.154Z,6.00
2023-03-25T18:39:40.938Z,5.90
2023-03-25T18:44:42.687Z,5.60
2023-03-25T18:49:44.431Z,5.60
2023-03-25T18:54:46.296Z,5.40
2023-03-25T18:59:48.037Z,5.30
2023-03-25T19:05:00.110Z,5.20
2023-03-25T19:10:02.384Z,5.20
2023-03-25T19:15:05.734Z,5.10
2023-03-25T19:20:09.004Z,5.10
2023-03-25T19:25:11.382Z,5.10
2023-03-25T19:30:16.864Z,5.10
2023-03-25T19:35:20.334Z,5.00
2023-03-25T19:40:26.097Z,5.00
2023-03-25T19:45:29.979Z,5.00
2023-03-25T19:50:33.479Z,5.00
2023-03-25T19:55:35.264Z,4.90
2023-03-25T20:00:37.010Z,4.80
2023-03-25T20:05:39.161Z,4.90
2023-03-25T20:10:41.311Z,5.00
2023-03-25T20:15:43.138Z,5.00
2023-03-25T20:20:44.977Z,5.10
2023-03-25T20:25:49.223Z,5.00
2023-03-25T20:30:51.532Z,4.90
2023-03-25T20:35:53.499Z,4.80
2023-03-25T20:40:55.648Z,4.80
2023-03-25T20:45:57.456Z,4.70
2023-03-25T20:51:06.050Z,4.60
2023-03-25T20:56:08.178Z,4.50
2023-03-25T21:01:12.339Z,4.50
2023-03-25T21:11:23.449Z,4.40
2023-03-25T21:16:26.199Z,4.30
2023-03-25T21:21:29.715Z,4.40
2023-03-25T21:26:32.729Z,4.50
2023-03-25T21:31:34.574Z,4.50
2023-03-25T21:36:36.537Z,4.50
2023-03-25T21:41:38.710Z,4.60
2023-03-25T21:46:40.848Z,4.70
2023-03-25T21:51:44.179Z,4.70
2023-03-25T21:56:46.960Z,4.80
2023-03-25T22:01:49.087Z,4.90
2023-03-25T22:06:50.904Z,5.00
2023-03-25T22:11:52.712Z,5.00
2023-03-25T22:16:54.488Z,5.10
2023-03-25T22:21:56.453Z,5.00
2023-03-25T22:26:58.382Z,5.10
2023-03-25T22:32:06.785Z,5.10
2023-03-25T22:37:08.620Z,5.20
2023-03-25T22:42:10.763Z,5.10
2023-03-25T22:47:12.637Z,5.10
2023-03-25T22:52:14.584Z,5.20
2023-03-25T22:57:17.303Z,5.30
2023-03-25T23:02:19.244Z,5.40
2023-03-25T23:07:21.192Z,5.40
2023-03-25T23:12:24.750Z,5.50
2023-03-25T23:17:27.068Z,5.60
2023-03-25T23:22:29.078Z,5.60
2023-03-25T23:27:33.858Z,5.70
2023-03-25T23:32:35.955Z,5.70
2023-03-25T23:37:37.770Z,5.80
2023-03-25T23:42:39.518Z,5.80
2023-03-25T23:47:41.318Z,5.80
2023-03-25T23:52:43.209Z,5.80
2023-03-25T23:57:45.159Z,5.80
